sensor_id;sensor_type;location;lat;lon;timestamp;temperature;humidity
22706;DHT22;11520;51.198;4.468;2022-08-05T00:01:50;21.70;99.90
22706;DHT22;11520;51.198;4.468;2022-08-05T00:04:17;21.70;99.90
22706;DHT22;11520;51.198;4.468;2022-08-05T00:06:43;21.70;99.90
22706;DHT22;11520;51.198;4.468;2022-08-05T00:09:09;21.70;99.90
22706;DHT22;11520;51.198;4.468;2022-08-05T00:11:34;21.60;99.90
22706;DHT22;11520;51.198;4.468;2022-08-05T00:14:01;21.50;99.90
22706;DHT22;11520;51.198;4.468;2022-08-05T00:16:27;21.40;99.90
22706;DHT22;11520;51.198;4.468;2022-08-05T00:18:52;21.30;99.90
22706;DHT22;11520;51.198;4.468;2022-08-05T00:21:18;21.20;99.90
22706;DHT22;11520;51.198;4.468;2022-08-05T00:23:46;21.20;99.90
22706;DHT22;11520;51.198;4.468;2022-08-05T00:26:14;21.20;99.90
22706;DHT22;11520;51.198;4.468;2022-08-05T00:28:41;21.20;99.90
22706;DHT22;11520;51.198;4.468;2022-08-05T00:31:07;21.20;99.90
22706;DHT22;11520;51.198;4.468;2022-08-05T00:33:33;21.20;99.90
22706;DHT22;11520;51.198;4.468;2022-08-05T00:36:00;21.20;99.90
22706;DHT22;11520;51.198;4.468;2022-08-05T00:38:26;21.20;99.90
22706;DHT22;11520;51.198;4.468;2022-08-05T00:40:56;21.30;99.90
22706;DHT22;11520;51.198;4.468;2022-08-05T00:43:22;21.20;99.90
22706;DHT22;11520;51.198;4.468;2022-08-05T00:45:48;21.20;99.90
22706;DHT22;11520;51.198;4.468;2022-08-05T00:48:16;21.20;99.90
22706;DHT22;11520;51.198;4.468;2022-08-05T00:50:45;21.20;99.90
22706;DHT22;11520;51.198;4.468;2022-08-05T00:53:15;21.20;99.90
22706;DHT22;11520;51.198;4.468;2022-08-05T00:55:41;21.40;99.90
22706;DHT22;11520;51.198;4.468;2022-08-05T00:58:09;21.40;99.90
22706;DHT22;11520;51.198;4.468;2022-08-05T01:00:37;21.50;99.90
22706;DHT22;11520;51.198;4.468;2022-08-05T01:03:02;21.60;99.90
22706;DHT22;11520;51.198;4.468;2022-08-05T01:05:28;21.60;99.90
22706;DHT22;11520;51.198;4.468;2022-08-05T01:07:54;21.60;99.90
22706;DHT22;11520;51.198;4.468;2022-08-05T01:10:26;21.50;99.90
22706;DHT22;11520;51.198;4.468;2022-08-05T01:12:57;21.50;99.90
22706;DHT22;11520;51.198;4.468;2022-08-05T01:15:34;21.50;99.90
22706;DHT22;11520;51.198;4.468;2022-08-05T01:18:07;21.30;99.90
22706;DHT22;11520;51.198;4.468;2022-08-05T01:20:59;21.10;99.90
22706;DHT22;11520;51.198;4.468;2022-08-05T01:23:53;21.10;99.90
22706;DHT22;11520;51.198;4.468;2022-08-05T01:26:47;21.10;99.90
22706;DHT22;11520;51.198;4.468;2022-08-05T01:29:30;21.10;99.90
22706;DHT22;11520;51.198;4.468;2022-08-05T01:31:59;20.90;99.90
22706;DHT22;11520;51.198;4.468;2022-08-05T01:34:44;20.90;99.90
22706;DHT22;11520;51.198;4.468;2022-08-05T01:39:46;21.00;99.90
22706;DHT22;11520;51.198;4.468;2022-08-05T01:42:14;20.90;99.90
22706;DHT22;11520;51.198;4.468;2022-08-05T01:44:43;20.90;99.90
22706;DHT22;11520;51.198;4.468;2022-08-05T01:47:14;20.90;99.90
22706;DHT22;11520;51.198;4.468;2022-08-05T01:49:44;20.80;99.90
22706;DHT22;11520;51.198;4.468;2022-08-05T01:52:12;20.80;99.90
22706;DHT22;11520;51.198;4.468;2022-08-05T01:54:42;20.90;99.90
22706;DHT22;11520;51.198;4.468;2022-08-05T01:57:11;20.80;99.90
22706;DHT22;11520;51.198;4.468;2022-08-05T01:59:39;20.80;99.90
22706;DHT22;11520;51.198;4.468;2022-08-05T02:02:08;20.70;99.90
22706;DHT22;11520;51.198;4.468;2022-08-05T02:04:37;20.80;99.90
22706;DHT22;11520;51.198;4.468;2022-08-05T02:07:05;20.90;99.90
22706;DHT22;11520;51.198;4.468;2022-08-05T02:09:31;21.00;99.90
22706;DHT22;11520;51.198;4.468;2022-08-05T02:12:23;20.90;99.90
22706;DHT22;11520;51.198;4.468;2022-08-05T02:15:14;20.70;99.90
22706;DHT22;11520;51.198;4.468;2022-08-05T02:17:48;20.70;99.90
22706;DHT22;11520;51.198;4.468;2022-08-05T02:20:19;20.60;99.90
22706;DHT22;11520;51.198;4.468;2022-08-05T02:22:47;20.70;99.90
22706;DHT22;11520;51.198;4.468;2022-08-05T02:25:18;20.80;99.90
22706;DHT22;11520;51.198;4.468;2022-08-05T02:27:48;20.80;99.90
22706;DHT22;11520;51.198;4.468;2022-08-05T02:30:15;20.70;99.90
22706;DHT22;11520;51.198;4.468;2022-08-05T02:32:42;20.70;99.90
22706;DHT22;11520;51.198;4.468;2022-08-05T02:35:14;20.80;99.90
22706;DHT22;11520;51.198;4.468;2022-08-05T02:37:42;20.90;99.90
22706;DHT22;11520;51.198;4.468;2022-08-05T02:40:09;20.90;99.90
22706;DHT22;11520;51.198;4.468;2022-08-05T02:42:36;21.00;99.90
22706;DHT22;11520;51.198;4.468;2022-08-05T02:45:04;21.10;99.90
22706;DHT22;11520;51.198;4.468;2022-08-05T02:47:33;21.10;99.90
22706;DHT22;11520;51.198;4.468;2022-08-05T02:50:00;21.00;99.90
22706;DHT22;11520;51.198;4.468;2022-08-05T02:52:26;21.10;99.90
22706;DHT22;11520;51.198;4.468;2022-08-05T02:54:53;21.00;99.90
22706;DHT22;11520;51.198;4.468;2022-08-05T02:57:23;20.90;99.90
22706;DHT22;11520;51.198;4.468;2022-08-05T02:59:51;20.90;99.90
22706;DHT22;11520;51.198;4.468;2022-08-05T03:02:19;20.90;99.90
22706;DHT22;11520;51.198;4.468;2022-08-05T03:04:47;21.00;99.90
22706;DHT22;11520;51.198;4.468;2022-08-05T03:07:14;21.00;99.90
22706;DHT22;11520;51.198;4.468;2022-08-05T03:09:41;20.90;99.90
22706;DHT22;11520;51.198;4.468;2022-08-05T03:12:08;20.90;99.90
22706;DHT22;11520;51.198;4.468;2022-08-05T03:14:35;20.70;99.90
22706;DHT22;11520;51.198;4.468;2022-08-05T03:17:01;20.80;99.90
22706;DHT22;11520;51.198;4.468;2022-08-05T03:19:27;20.90;99.90
22706;DHT22;11520;51.198;4.468;2022-08-05T03:21:55;20.70;99.90
22706;DHT22;11520;51.198;4.468;2022-08-05T03:24:20;20.80;99.90
22706;DHT22;11520;51.198;4.468;2022-08-05T03:26:48;20.70;99.90
22706;DHT22;11520;51.198;4.468;2022-08-05T03:29:14;20.70;99.90
22706;DHT22;11520;51.198;4.468;2022-08-05T03:31:39;20.60;99.90
22706;DHT22;11520;51.198;4.468;2022-08-05T03:34:07;20.50;99.90
22706;DHT22;11520;51.198;4.468;2022-08-05T03:36:33;20.40;99.90
22706;DHT22;11520;51.198;4.468;2022-08-05T03:39:06;20.30;99.90
22706;DHT22;11520;51.198;4.468;2022-08-05T03:41:35;20.20;99.90
22706;DHT22;11520;51.198;4.468;2022-08-05T03:44:01;20.10;99.90
22706;DHT22;11520;51.198;4.468;2022-08-05T03:46:27;20.00;99.90
22706;DHT22;11520;51.198;4.468;2022-08-05T03:48:52;20.10;99.90
22706;DHT22;11520;51.198;4.468;2022-08-05T03:51:28;20.00;99.90
22706;DHT22;11520;51.198;4.468;2022-08-05T03:53:59;20.00;99.90
22706;DHT22;11520;51.198;4.468;2022-08-05T03:56:40;20.00;99.90
22706;DHT22;11520;51.198;4.468;2022-08-05T03:59:09;20.00;99.90
22706;DHT22;11520;51.198;4.468;2022-08-05T04:01:41;19.90;99.90
22706;DHT22;11520;51.198;4.468;2022-08-05T04:04:09;20.00;99.90
22706;DHT22;11520;51.198;4.468;2022-08-05T04:06:37;19.90;99.90
22706;DHT22;11520;51.198;4.468;2022-08-05T04:09:04;19.90;99.90
22706;DHT22;11520;51.198;4.468;2022-08-05T04:11:31;19.80;99.90
22706;DHT22;11520;51.198;4.468;2022-08-05T04:13:58;19.80;99.90
22706;DHT22;11520;51.198;4.468;2022-08-05T04:16:24;19.80;99.90
22706;DHT22;11520;51.198;4.468;2022-08-05T04:18:51;19.90;99.90
22706;DHT22;11520;51.198;4.468;2022-08-05T04:21:16;20.00;99.90
22706;DHT22;11520;51.198;4.468;2022-08-05T04:23:42;20.00;99.90
22706;DHT22;11520;51.198;4.468;2022-08-05T04:26:12;20.00;99.90
22706;DHT22;11520;51.198;4.468;2022-08-05T04:28:38;20.10;99.90
22706;DHT22;11520;51.198;4.468;2022-08-05T04:31:05;20.20;99.90
22706;DHT22;11520;51.198;4.468;2022-08-05T04:33:31;20.20;99.90
22706;DHT22;11520;51.198;4.468;2022-08-05T04:35:57;20.20;99.90
22706;DHT22;11520;51.198;4.468;2022-08-05T04:38:23;20.20;99.90
22706;DHT22;11520;51.198;4.468;2022-08-05T04:40:48;20.20;99.90
22706;DHT22;11520;51.198;4.468;2022-08-05T04:43:14;20.20;99.90
22706;DHT22;11520;51.198;4.468;2022-08-05T04:45:41;20.10;99.90
22706;DHT22;11520;51.198;4.468;2022-08-05T04:48:08;20.00;99.90
22706;DHT22;11520;51.198;4.468;2022-08-05T04:50:46;20.10;99.90
22706;DHT22;11520;51.198;4.468;2022-08-05T04:53:13;20.10;99.90
22706;DHT22;11520;51.198;4.468;2022-08-05T04:55:40;20.00;99.90
22706;DHT22;11520;51.198;4.468;2022-08-05T04:58:07;20.10;99.90
22706;DHT22;11520;51.198;4.468;2022-08-05T05:00:34;20.30;99.90
22706;DHT22;11520;51.198;4.468;2022-08-05T05:03:00;20.10;99.90
22706;DHT22;11520;51.198;4.468;2022-08-05T05:05:26;20.00;99.90
22706;DHT22;11520;51.198;4.468;2022-08-05T05:07:59;20.00;99.90
22706;DHT22;11520;51.198;4.468;2022-08-05T05:10:25;19.90;99.90
22706;DHT22;11520;51.198;4.468;2022-08-05T05:12:51;20.00;99.90
22706;DHT22;11520;51.198;4.468;2022-08-05T05:15:18;20.00;99.90
22706;DHT22;11520;51.198;4.468;2022-08-05T05:17:44;20.00;99.90
22706;DHT22;11520;51.198;4.468;2022-08-05T05:20:11;19.90;99.90
22706;DHT22;11520;51.198;4.468;2022-08-05T05:22:37;19.90;99.90
22706;DHT22;11520;51.198;4.468;2022-08-05T05:25:03;20.00;99.90
22706;DHT22;11520;51.198;4.468;2022-08-05T05:27:31;20.10;99.90
22706;DHT22;11520;51.198;4.468;2022-08-05T05:29:57;20.20;99.90
22706;DHT22;11520;51.198;4.468;2022-08-05T05:32:23;20.30;99.90
22706;DHT22;11520;51.198;4.468;2022-08-05T05:34:50;20.40;99.90
22706;DHT22;11520;51.198;4.468;2022-08-05T05:37:15;20.50;99.90
22706;DHT22;11520;51.198;4.468;2022-08-05T05:39:41;20.70;99.90
22706;DHT22;11520;51.198;4.468;2022-08-05T05:42:09;20.70;99.90
22706;DHT22;11520;51.198;4.468;2022-08-05T05:44:35;20.90;99.90
22706;DHT22;11520;51.198;4.468;2022-08-05T05:47:01;20.90;99.90
22706;DHT22;11520;51.198;4.468;2022-08-05T05:49:27;21.00;99.90
22706;DHT22;11520;51.198;4.468;2022-08-05T05:51:54;21.10;99.90
22706;DHT22;11520;51.198;4.468;2022-08-05T05:54:22;21.00;99.90
22706;DHT22;11520;51.198;4.468;2022-08-05T05:56:49;21.20;99.90
22706;DHT22;11520;51.198;4.468;2022-08-05T05:59:15;21.50;99.90
22706;DHT22;11520;51.198;4.468;2022-08-05T06:01:42;21.70;99.90
22706;DHT22;11520;51.198;4.468;2022-08-05T06:04:11;22.40;99.90
22706;DHT22;11520;51.198;4.468;2022-08-05T06:06:42;23.20;99.90
22706;DHT22;11520;51.198;4.468;2022-08-05T06:09:09;24.00;99.90
22706;DHT22;11520;51.198;4.468;2022-08-05T06:11:36;24.60;99.90
22706;DHT22;11520;51.198;4.468;2022-08-05T06:14:04;24.40;99.90
22706;DHT22;11520;51.198;4.468;2022-08-05T06:16:30;24.00;99.90
22706;DHT22;11520;51.198;4.468;2022-08-05T06:18:55;24.70;99.90
22706;DHT22;11520;51.198;4.468;2022-08-05T06:21:22;25.70;99.90
22706;DHT22;11520;51.198;4.468;2022-08-05T06:23:48;26.10;99.90
22706;DHT22;11520;51.198;4.468;2022-08-05T06:26:13;25.60;99.90
22706;DHT22;11520;51.198;4.468;2022-08-05T06:28:39;25.20;99.90
22706;DHT22;11520;51.198;4.468;2022-08-05T06:31:05;24.90;99.90
22706;DHT22;11520;51.198;4.468;2022-08-05T06:33:31;24.80;99.90
22706;DHT22;11520;51.198;4.468;2022-08-05T06:35:57;24.70;99.90
22706;DHT22;11520;51.198;4.468;2022-08-05T06:38:22;24.90;99.90
22706;DHT22;11520;51.198;4.468;2022-08-05T06:40:49;25.20;99.90
22706;DHT22;11520;51.198;4.468;2022-08-05T06:43:14;25.30;99.90
22706;DHT22;11520;51.198;4.468;2022-08-05T06:45:41;26.00;99.90
22706;DHT22;11520;51.198;4.468;2022-08-05T06:48:08;27.80;99.90
22706;DHT22;11520;51.198;4.468;2022-08-05T06:50:34;29.10;97.60
22706;DHT22;11520;51.198;4.468;2022-08-05T06:53:00;30.40;94.00
22706;DHT22;11520;51.198;4.468;2022-08-05T06:55:26;30.80;91.40
22706;DHT22;11520;51.198;4.468;2022-08-05T06:57:51;31.50;87.90
22706;DHT22;11520;51.198;4.468;2022-08-05T07:00:18;32.40;83.50
22706;DHT22;11520;51.198;4.468;2022-08-05T07:02:46;33.00;79.30
22706;DHT22;11520;51.198;4.468;2022-08-05T07:05:14;33.00;76.90
22706;DHT22;11520;51.198;4.468;2022-08-05T07:07:40;34.00;73.90
22706;DHT22;11520;51.198;4.468;2022-08-05T07:10:09;34.90;71.80
22706;DHT22;11520;51.198;4.468;2022-08-05T07:12:35;36.20;66.40
22706;DHT22;11520;51.198;4.468;2022-08-05T07:15:19;35.70;61.50
22706;DHT22;11520;51.198;4.468;2022-08-05T07:18:04;36.20;61.20
22706;DHT22;11520;51.198;4.468;2022-08-05T07:20:31;37.20;58.10
22706;DHT22;11520;51.198;4.468;2022-08-05T07:22:56;37.10;57.10
22706;DHT22;11520;51.198;4.468;2022-08-05T07:25:23;36.40;56.00
22706;DHT22;11520;51.198;4.468;2022-08-05T07:27:50;36.80;55.30
22706;DHT22;11520;51.198;4.468;2022-08-05T07:30:18;35.80;55.70
22706;DHT22;11520;51.198;4.468;2022-08-05T07:32:44;36.40;55.60
22706;DHT22;11520;51.198;4.468;2022-08-05T07:35:11;37.70;53.40
22706;DHT22;11520;51.198;4.468;2022-08-05T07:37:40;37.00;52.80
22706;DHT22;11520;51.198;4.468;2022-08-05T07:40:07;37.00;52.80
22706;DHT22;11520;51.198;4.468;2022-08-05T07:42:33;37.10;51.30
22706;DHT22;11520;51.198;4.468;2022-08-05T07:44:59;37.00;51.60
22706;DHT22;11520;51.198;4.468;2022-08-05T07:47:26;37.90;51.60
22706;DHT22;11520;51.198;4.468;2022-08-05T07:49:51;39.00;49.40
22706;DHT22;11520;51.198;4.468;2022-08-05T07:52:19;39.30;48.40
22706;DHT22;11520;51.198;4.468;2022-08-05T07:54:49;39.90;46.90
22706;DHT22;11520;51.198;4.468;2022-08-05T07:57:16;40.20;45.20
22706;DHT22;11520;51.198;4.468;2022-08-05T07:59:42;39.30;46.50
22706;DHT22;11520;51.198;4.468;2022-08-05T08:02:10;38.50;46.60
22706;DHT22;11520;51.198;4.468;2022-08-05T08:04:36;36.50;49.10
22706;DHT22;11520;51.198;4.468;2022-08-05T08:07:03;33.40;54.40
22706;DHT22;11520;51.198;4.468;2022-08-05T08:09:29;34.10;53.90
22706;DHT22;11520;51.198;4.468;2022-08-05T08:11:56;34.80;53.10
22706;DHT22;11520;51.198;4.468;2022-08-05T08:14:22;36.10;51.90
22706;DHT22;11520;51.198;4.468;2022-08-05T08:16:48;37.20;49.70
22706;DHT22;11520;51.198;4.468;2022-08-05T08:19:13;36.80;48.90
22706;DHT22;11520;51.198;4.468;2022-08-05T08:21:39;37.70;48.70
22706;DHT22;11520;51.198;4.468;2022-08-05T08:24:06;38.30;47.50
22706;DHT22;11520;51.198;4.468;2022-08-05T08:26:32;39.30;45.60
22706;DHT22;11520;51.198;4.468;2022-08-05T08:28:59;39.40;44.90
22706;DHT22;11520;51.198;4.468;2022-08-05T08:31:30;37.90;46.20
22706;DHT22;11520;51.198;4.468;2022-08-05T08:33:56;38.80;45.70
22706;DHT22;11520;51.198;4.468;2022-08-05T08:36:22;40.00;44.30
22706;DHT22;11520;51.198;4.468;2022-08-05T08:38:47;40.50;42.20
22706;DHT22;11520;51.198;4.468;2022-08-05T08:41:15;40.90;41.30
22706;DHT22;11520;51.198;4.468;2022-08-05T08:43:43;37.40;44.10
22706;DHT22;11520;51.198;4.468;2022-08-05T08:46:12;35.40;47.30
22706;DHT22;11520;51.198;4.468;2022-08-05T08:48:43;35.40;48.40
22706;DHT22;11520;51.198;4.468;2022-08-05T08:51:13;36.20;47.50
22706;DHT22;11520;51.198;4.468;2022-08-05T08:53:40;36.70;46.10
22706;DHT22;11520;51.198;4.468;2022-08-05T08:56:07;37.00;45.60
22706;DHT22;11520;51.198;4.468;2022-08-05T08:58:32;36.70;45.10
22706;DHT22;11520;51.198;4.468;2022-08-05T09:00:58;34.90;47.30
22706;DHT22;11520;51.198;4.468;2022-08-05T09:03:24;34.80;48.10
22706;DHT22;11520;51.198;4.468;2022-08-05T09:05:50;34.50;47.60
22706;DHT22;11520;51.198;4.468;2022-08-05T09:08:16;34.30;48.30
22706;DHT22;11520;51.198;4.468;2022-08-05T09:10:43;35.00;47.80
22706;DHT22;11520;51.198;4.468;2022-08-05T09:13:13;36.00;45.70
22706;DHT22;11520;51.198;4.468;2022-08-05T09:15:39;36.90;43.40
22706;DHT22;11520;51.198;4.468;2022-08-05T09:18:07;35.40;44.40
22706;DHT22;11520;51.198;4.468;2022-08-05T09:20:33;34.30;46.20
22706;DHT22;11520;51.198;4.468;2022-08-05T09:25:33;33.10;48.50
22706;DHT22;11520;51.198;4.468;2022-08-05T09:28:15;33.30;47.50
22706;DHT22;11520;51.198;4.468;2022-08-05T09:30:53;33.60;47.70
22706;DHT22;11520;51.198;4.468;2022-08-05T09:33:21;32.80;48.80
22706;DHT22;11520;51.198;4.468;2022-08-05T09:36:04;30.80;50.70
22706;DHT22;11520;51.198;4.468;2022-08-05T09:38:31;30.30;51.80
22706;DHT22;11520;51.198;4.468;2022-08-05T09:41:05;29.40;53.20
22706;DHT22;11520;51.198;4.468;2022-08-05T09:43:34;28.30;56.10
22706;DHT22;11520;51.198;4.468;2022-08-05T09:46:00;27.90;56.70
22706;DHT22;11520;51.198;4.468;2022-08-05T09:48:29;27.90;57.80
22706;DHT22;11520;51.198;4.468;2022-08-05T09:51:01;28.50;56.30
22706;DHT22;11520;51.198;4.468;2022-08-05T09:53:28;29.50;54.70
22706;DHT22;11520;51.198;4.468;2022-08-05T09:55:59;30.70;52.30
22706;DHT22;11520;51.198;4.468;2022-08-05T09:58:26;32.40;50.10
22706;DHT22;11520;51.198;4.468;2022-08-05T10:03:17;34.10;44.20
22706;DHT22;11520;51.198;4.468;2022-08-05T10:05:43;35.00;43.20
22706;DHT22;11520;51.198;4.468;2022-08-05T10:08:09;36.70;41.50
22706;DHT22;11520;51.198;4.468;2022-08-05T10:10:38;37.70;39.80
22706;DHT22;11520;51.198;4.468;2022-08-05T10:13:11;35.10;42.80
22706;DHT22;11520;51.198;4.468;2022-08-05T10:15:50;33.10;45.80
22706;DHT22;11520;51.198;4.468;2022-08-05T10:18:19;31.60;46.60
22706;DHT22;11520;51.198;4.468;2022-08-05T10:20:55;31.00;46.80
22706;DHT22;11520;51.198;4.468;2022-08-05T10:25:49;34.10;46.30
22706;DHT22;11520;51.198;4.468;2022-08-05T10:28:17;35.30;45.00
22706;DHT22;11520;51.198;4.468;2022-08-05T10:30:43;33.30;47.00
22706;DHT22;11520;51.198;4.468;2022-08-05T10:33:09;31.00;49.70
22706;DHT22;11520;51.198;4.468;2022-08-05T10:35:37;29.90;52.50
22706;DHT22;11520;51.198;4.468;2022-08-05T10:38:04;29.00;54.70
22706;DHT22;11520;51.198;4.468;2022-08-05T10:40:57;28.80;54.90
22706;DHT22;11520;51.198;4.468;2022-08-05T10:46:12;30.50;51.40
22706;DHT22;11520;51.198;4.468;2022-08-05T10:48:43;29.90;51.90
22706;DHT22;11520;51.198;4.468;2022-08-05T10:51:15;29.20;52.90
22706;DHT22;11520;51.198;4.468;2022-08-05T10:53:55;29.20;53.00
22706;DHT22;11520;51.198;4.468;2022-08-05T10:56:21;29.10;53.30
22706;DHT22;11520;51.198;4.468;2022-08-05T11:01:35;28.20;56.40
22706;DHT22;11520;51.198;4.468;2022-08-05T11:07:08;28.20;58.30
22706;DHT22;11520;51.198;4.468;2022-08-05T11:09:44;27.90;58.00
22706;DHT22;11520;51.198;4.468;2022-08-05T11:17:50;28.20;57.60
22706;DHT22;11520;51.198;4.468;2022-08-05T11:20:37;28.10;57.90
22706;DHT22;11520;51.198;4.468;2022-08-05T11:28:47;32.30;50.60
22706;DHT22;11520;51.198;4.468;2022-08-05T11:36:43;30.40;53.10
22706;DHT22;11520;51.198;4.468;2022-08-05T11:39:09;29.70;53.00
22706;DHT22;11520;51.198;4.468;2022-08-05T11:41:36;28.90;53.10
22706;DHT22;11520;51.198;4.468;2022-08-05T11:44:10;28.40;53.60
22706;DHT22;11520;51.198;4.468;2022-08-05T11:46:51;29.20;53.50
22706;DHT22;11520;51.198;4.468;2022-08-05T11:49:20;31.00;50.70
22706;DHT22;11520;51.198;4.468;2022-08-05T11:51:49;32.20;48.20
22706;DHT22;11520;51.198;4.468;2022-08-05T11:54:29;31.60;46.80
22706;DHT22;11520;51.198;4.468;2022-08-05T11:57:01;31.20;46.10
22706;DHT22;11520;51.198;4.468;2022-08-05T11:59:28;30.90;46.70
22706;DHT22;11520;51.198;4.468;2022-08-05T12:02:06;31.10;45.80
22706;DHT22;11520;51.198;4.468;2022-08-05T12:04:46;29.70;47.50
22706;DHT22;11520;51.198;4.468;2022-08-05T12:07:14;29.60;48.20
22706;DHT22;11520;51.198;4.468;2022-08-05T12:09:42;29.70;48.30
22706;DHT22;11520;51.198;4.468;2022-08-05T12:12:09;29.70;47.20
22706;DHT22;11520;51.198;4.468;2022-08-05T12:14:39;29.80;47.80
22706;DHT22;11520;51.198;4.468;2022-08-05T12:17:11;29.10;48.70
22706;DHT22;11520;51.198;4.468;2022-08-05T12:19:42;29.10;48.90
22706;DHT22;11520;51.198;4.468;2022-08-05T12:22:13;28.60;49.20
22706;DHT22;11520;51.198;4.468;2022-08-05T12:24:40;28.00;51.30
22706;DHT22;11520;51.198;4.468;2022-08-05T12:27:06;28.30;51.80
22706;DHT22;11520;51.198;4.468;2022-08-05T12:29:35;28.70;50.70
22706;DHT22;11520;51.198;4.468;2022-08-05T12:32:05;28.30;51.60
22706;DHT22;11520;51.198;4.468;2022-08-05T12:34:33;28.60;52.20
22706;DHT22;11520;51.198;4.468;2022-08-05T12:37:10;29.00;50.40
22706;DHT22;11520;51.198;4.468;2022-08-05T12:39:39;28.70;50.60
22706;DHT22;11520;51.198;4.468;2022-08-05T12:42:12;28.70;50.80
22706;DHT22;11520;51.198;4.468;2022-08-05T12:44:44;28.70;50.70
22706;DHT22;11520;51.198;4.468;2022-08-05T12:47:12;28.70;51.90
22706;DHT22;11520;51.198;4.468;2022-08-05T12:49:46;28.30;51.00
22706;DHT22;11520;51.198;4.468;2022-08-05T12:52:17;27.60;51.30
22706;DHT22;11520;51.198;4.468;2022-08-05T12:54:45;27.20;53.50
22706;DHT22;11520;51.198;4.468;2022-08-05T12:57:14;27.30;53.30
22706;DHT22;11520;51.198;4.468;2022-08-05T12:59:50;27.20;53.50
22706;DHT22;11520;51.198;4.468;2022-08-05T13:02:25;27.00;53.50
22706;DHT22;11520;51.198;4.468;2022-08-05T13:04:52;26.80;54.10
22706;DHT22;11520;51.198;4.468;2022-08-05T13:07:23;26.80;54.80
22706;DHT22;11520;51.198;4.468;2022-08-05T13:09:53;26.70;54.80
22706;DHT22;11520;51.198;4.468;2022-08-05T13:12:22;26.70;54.40
22706;DHT22;11520;51.198;4.468;2022-08-05T13:14:50;26.30;55.10
22706;DHT22;11520;51.198;4.468;2022-08-05T13:17:21;26.60;55.30
22706;DHT22;11520;51.198;4.468;2022-08-05T13:20:07;26.20;53.70
22706;DHT22;11520;51.198;4.468;2022-08-05T13:22:40;25.70;54.60
22706;DHT22;11520;51.198;4.468;2022-08-05T13:25:10;25.80;54.30
22706;DHT22;11520;51.198;4.468;2022-08-05T13:27:46;25.80;53.70
22706;DHT22;11520;51.198;4.468;2022-08-05T13:30:14;25.60;54.80
22706;DHT22;11520;51.198;4.468;2022-08-05T13:32:42;25.80;55.80
22706;DHT22;11520;51.198;4.468;2022-08-05T13:35:11;25.80;56.20
22706;DHT22;11520;51.198;4.468;2022-08-05T13:37:40;25.80;55.40
22706;DHT22;11520;51.198;4.468;2022-08-05T13:40:06;25.50;55.80
22706;DHT22;11520;51.198;4.468;2022-08-05T13:42:32;25.70;56.50
22706;DHT22;11520;51.198;4.468;2022-08-05T13:44:58;25.80;55.80
22706;DHT22;11520;51.198;4.468;2022-08-05T13:47:24;25.80;56.20
22706;DHT22;11520;51.198;4.468;2022-08-05T13:49:51;25.60;56.80
22706;DHT22;11520;51.198;4.468;2022-08-05T13:52:18;25.80;57.10
22706;DHT22;11520;51.198;4.468;2022-08-05T13:54:44;25.70;56.80
22706;DHT22;11520;51.198;4.468;2022-08-05T13:57:10;25.60;57.30
22706;DHT22;11520;51.198;4.468;2022-08-05T13:59:39;25.60;57.20
22706;DHT22;11520;51.198;4.468;2022-08-05T14:02:08;25.80;57.20
22706;DHT22;11520;51.198;4.468;2022-08-05T14:04:37;25.80;56.40
22706;DHT22;11520;51.198;4.468;2022-08-05T14:07:26;25.50;56.00
22706;DHT22;11520;51.198;4.468;2022-08-05T14:09:52;25.50;56.40
22706;DHT22;11520;51.198;4.468;2022-08-05T14:12:18;25.50;55.90
22706;DHT22;11520;51.198;4.468;2022-08-05T14:14:44;25.70;55.80
22706;DHT22;11520;51.198;4.468;2022-08-05T14:17:09;25.70;54.20
22706;DHT22;11520;51.198;4.468;2022-08-05T14:19:35;25.30;54.40
22706;DHT22;11520;51.198;4.468;2022-08-05T14:22:02;25.30;54.40
22706;DHT22;11520;51.198;4.468;2022-08-05T14:24:28;25.50;55.20
22706;DHT22;11520;51.198;4.468;2022-08-05T14:26:54;25.40;54.30
22706;DHT22;11520;51.198;4.468;2022-08-05T14:29:20;25.50;54.60
22706;DHT22;11520;51.198;4.468;2022-08-05T14:31:48;25.40;54.40
22706;DHT22;11520;51.198;4.468;2022-08-05T14:34:14;25.40;54.20
22706;DHT22;11520;51.198;4.468;2022-08-05T14:36:40;25.20;55.30
22706;DHT22;11520;51.198;4.468;2022-08-05T14:39:11;24.90;56.40
22706;DHT22;11520;51.198;4.468;2022-08-05T14:41:38;24.90;56.80
22706;DHT22;11520;51.198;4.468;2022-08-05T14:44:07;24.90;56.60
22706;DHT22;11520;51.198;4.468;2022-08-05T14:46:34;25.00;56.40
22706;DHT22;11520;51.198;4.468;2022-08-05T14:49:02;25.20;56.10
22706;DHT22;11520;51.198;4.468;2022-08-05T14:51:29;25.20;56.20
22706;DHT22;11520;51.198;4.468;2022-08-05T14:53:58;25.20;57.10
22706;DHT22;11520;51.198;4.468;2022-08-05T14:56:24;25.40;56.70
22706;DHT22;11520;51.198;4.468;2022-08-05T14:58:49;25.20;56.30
22706;DHT22;11520;51.198;4.468;2022-08-05T15:01:19;25.50;56.90
22706;DHT22;11520;51.198;4.468;2022-08-05T15:03:45;25.50;56.40
22706;DHT22;11520;51.198;4.468;2022-08-05T15:06:10;25.50;57.70
22706;DHT22;11520;51.198;4.468;2022-08-05T15:08:36;25.50;57.60
22706;DHT22;11520;51.198;4.468;2022-08-05T15:11:03;25.60;58.00
22706;DHT22;11520;51.198;4.468;2022-08-05T15:13:33;25.50;59.60
22706;DHT22;11520;51.198;4.468;2022-08-05T15:16:01;25.20;60.40
22706;DHT22;11520;51.198;4.468;2022-08-05T15:18:29;24.70;61.20
22706;DHT22;11520;51.198;4.468;2022-08-05T15:20:55;24.50;62.00
22706;DHT22;11520;51.198;4.468;2022-08-05T15:23:22;24.70;61.30
22706;DHT22;11520;51.198;4.468;2022-08-05T15:25:51;24.70;58.50
22706;DHT22;11520;51.198;4.468;2022-08-05T15:28:18;24.60;59.90
22706;DHT22;11520;51.198;4.468;2022-08-05T15:30:45;24.50;60.00
22706;DHT22;11520;51.198;4.468;2022-08-05T15:33:11;24.60;60.50
22706;DHT22;11520;51.198;4.468;2022-08-05T15:35:37;24.90;59.90
22706;DHT22;11520;51.198;4.468;2022-08-05T15:38:04;25.10;61.00
22706;DHT22;11520;51.198;4.468;2022-08-05T15:40:30;24.60;64.50
22706;DHT22;11520;51.198;4.468;2022-08-05T15:42:57;24.30;67.20
22706;DHT22;11520;51.198;4.468;2022-08-05T15:45:23;24.10;68.80
22706;DHT22;11520;51.198;4.468;2022-08-05T15:51:11;23.60;70.50
22706;DHT22;11520;51.198;4.468;2022-08-05T15:57:33;23.50;71.10
22706;DHT22;11520;51.198;4.468;2022-08-05T15:59:59;23.30;71.90
22706;DHT22;11520;51.198;4.468;2022-08-05T16:02:24;23.00;73.50
22706;DHT22;11520;51.198;4.468;2022-08-05T16:04:50;22.80;73.00
22706;DHT22;11520;51.198;4.468;2022-08-05T16:07:17;22.70;72.20
22706;DHT22;11520;51.198;4.468;2022-08-05T16:09:46;22.60;72.50
22706;DHT22;11520;51.198;4.468;2022-08-05T16:12:13;22.60;75.00
22706;DHT22;11520;51.198;4.468;2022-08-05T16:14:39;22.60;73.90
22706;DHT22;11520;51.198;4.468;2022-08-05T16:17:05;22.60;74.30
22706;DHT22;11520;51.198;4.468;2022-08-05T16:19:31;22.70;74.70
22706;DHT22;11520;51.198;4.468;2022-08-05T16:21:57;22.50;75.00